createdAt,value
2022-08-26T00:01:06.465Z,19.18
2022-08-26T00:03:37.680Z,19.22
2022-08-26T00:06:07.784Z,19.16
2022-08-26T00:08:37.767Z,19.20
2022-08-26T00:11:07.981Z,19.17
2022-08-26T00:13:39.132Z,19.18
2022-08-26T00:16:09.520Z,19.18
2022-08-26T00:18:41.172Z,19.15
2022-08-26T00:21:10.994Z,19.10
2022-08-26T00:23:40.526Z,19.13
2022-08-26T00:26:09.719Z,19.14
2022-08-26T00:28:41.731Z,19.16
2022-08-26T00:31:11.269Z,19.17
2022-08-26T00:33:40.948Z,19.17
2022-08-26T00:36:19.854Z,19.19
2022-08-26T00:38:49.496Z,19.18
2022-08-26T00:41:20.621Z,19.21
2022-08-26T00:43:51.905Z,19.21
2022-08-26T00:46:26.202Z,19.13
2022-08-26T00:49:03.981Z,19.14
2022-08-26T00:51:46.894Z,19.13
2022-08-26T00:54:17.921Z,19.19
2022-08-26T00:56:53.766Z,19.18
2022-08-26T00:59:26.323Z,19.22
2022-08-26T01:01:55.421Z,19.24
2022-08-26T01:04:26.136Z,19.26
2022-08-26T01:06:57.632Z,19.28
2022-08-26T01:09:27.553Z,19.27
2022-08-26T01:12:00.058Z,19.25
2022-08-26T01:14:34.937Z,19.27
2022-08-26T01:17:07.749Z,19.27
2022-08-26T01:19:43.919Z,19.30
2022-08-26T01:22:18.648Z,19.23
2022-08-26T01:24:50.516Z,19.26
2022-08-26T01:27:21.964Z,19.21
2022-08-26T01:29:53.498Z,19.17
2022-08-26T01:32:24.714Z,19.16
2022-08-26T01:34:54.529Z,19.07
2022-08-26T01:37:25.820Z,19.08
2022-08-26T01:39:57.975Z,19.05
2022-08-26T01:42:29.138Z,19.05
2022-08-26T01:45:04.703Z,19.03
2022-08-26T01:47:36.493Z,19.00
2022-08-26T01:50:11.713Z,18.93
2022-08-26T01:52:45.000Z,18.86
2022-08-26T01:55:33.249Z,18.83
2022-08-26T01:58:08.785Z,18.83
2022-08-26T02:00:39.080Z,18.78
2022-08-26T02:03:18.116Z,18.78
2022-08-26T02:05:51.405Z,18.76
2022-08-26T02:08:24.934Z,18.73
2022-08-26T02:10:56.532Z,18.75
2022-08-26T02:13:30.068Z,18.75
2022-08-26T02:16:00.788Z,18.72
2022-08-26T02:18:31.407Z,18.70
2022-08-26T02:21:00.788Z,18.68
2022-08-26T02:23:30.345Z,18.66
2022-08-26T02:26:08.591Z,18.65
2022-08-26T02:28:43.872Z,18.60
2022-08-26T02:31:13.432Z,18.62
2022-08-26T02:33:43.031Z,18.63
2022-08-26T02:36:13.509Z,18.61
2022-08-26T02:38:45.010Z,18.64
2022-08-26T02:41:16.694Z,18.61
2022-08-26T02:43:47.214Z,18.62
2022-08-26T02:46:27.938Z,18.62
2022-08-26T02:49:01.179Z,18.59
2022-08-26T02:51:30.350Z,18.67
2022-08-26T02:53:59.606Z,18.70
2022-08-26T02:56:33.702Z,18.72
2022-08-26T02:59:04.801Z,18.70
2022-08-26T03:01:37.004Z,18.65
2022-08-26T03:04:09.591Z,18.58
2022-08-26T03:06:41.479Z,18.56
2022-08-26T03:09:10.800Z,18.49
2022-08-26T03:11:49.040Z,18.50
2022-08-26T03:14:18.320Z,18.43
2022-08-26T03:16:48.425Z,18.42
2022-08-26T03:19:17.807Z,18.40
2022-08-26T03:21:47.350Z,18.37
2022-08-26T03:24:17.507Z,18.36
2022-08-26T03:26:52.034Z,18.33
2022-08-26T03:29:39.511Z,18.32
2022-08-26T03:32:08.797Z,18.29
2022-08-26T03:34:37.927Z,18.27
2022-08-26T03:37:07.804Z,18.25
2022-08-26T03:39:37.863Z,18.20
2022-08-26T03:42:09.142Z,18.19
2022-08-26T03:44:42.272Z,18.18
2022-08-26T03:47:11.831Z,18.18
2022-08-26T03:49:41.777Z,18.17
2022-08-26T03:52:11.445Z,18.17
2022-08-26T03:54:41.249Z,18.22
2022-08-26T03:57:14.009Z,18.25
2022-08-26T03:59:45.863Z,18.23
2022-08-26T04:02:15.637Z,18.25
2022-08-26T04:04:45.759Z,18.23
2022-08-26T04:07:14.882Z,18.21
2022-08-26T04:09:44.250Z,18.22
2022-08-26T04:12:15.017Z,18.16
2022-08-26T04:14:44.115Z,18.13
2022-08-26T04:17:15.579Z,18.09
2022-08-26T04:19:45.990Z,18.11
2022-08-26T04:22:15.942Z,18.13
2022-08-26T04:24:54.093Z,18.11
2022-08-26T04:27:24.857Z,18.11
2022-08-26T04:29:55.334Z,18.12
2022-08-26T04:32:24.493Z,18.11
2022-08-26T04:34:53.489Z,18.09
2022-08-26T04:37:22.726Z,18.06
2022-08-26T04:39:53.356Z,18.07
2022-08-26T04:42:26.109Z,18.13
2022-08-26T04:44:55.566Z,18.17
2022-08-26T04:47:27.164Z,18.23
2022-08-26T04:49:59.940Z,18.31
2022-08-26T04:52:28.999Z,18.37
2022-08-26T04:54:58.035Z,18.38
2022-08-26T04:57:28.594Z,18.34
2022-08-26T04:59:57.919Z,18.42
2022-08-26T05:02:27.904Z,18.46
2022-08-26T05:04:57.563Z,18.52
2022-08-26T05:07:26.712Z,18.52
2022-08-26T05:09:56.107Z,18.54
2022-08-26T05:12:25.128Z,18.65
2022-08-26T05:14:55.937Z,18.74
2022-08-26T05:17:25.403Z,18.81
2022-08-26T05:19:55.405Z,18.89
2022-08-26T05:22:24.620Z,18.98
2022-08-26T05:24:54.335Z,19.02
2022-08-26T05:27:23.372Z,19.07
2022-08-26T05:29:57.051Z,19.07
2022-08-26T05:32:26.075Z,19.19
2022-08-26T05:34:57.081Z,19.21
2022-08-26T05:37:27.663Z,19.33
2022-08-26T05:39:57.177Z,19.41
2022-08-26T05:42:27.206Z,19.50
2022-08-26T05:44:58.796Z,19.63
2022-08-26T05:47:29.017Z,19.70
2022-08-26T05:49:58.381Z,19.75
2022-08-26T05:52:27.684Z,19.80
2022-08-26T05:54:58.529Z,19.94
2022-08-26T05:57:29.889Z,20.00
2022-08-26T06:00:01.767Z,20.34
2022-08-26T06:02:42.486Z,20.42
2022-08-26T06:05:12.686Z,20.73
2022-08-26T06:08:02.567Z,20.94
2022-08-26T06:10:33.453Z,20.47
2022-08-26T06:13:11.663Z,20.33
2022-08-26T06:15:45.506Z,20.43
2022-08-26T06:18:16.742Z,20.77
2022-08-26T06:20:53.719Z,20.56
2022-08-26T06:23:46.531Z,21.33
2022-08-26T06:26:17.117Z,21.88
2022-08-26T06:28:46.216Z,22.29
2022-08-26T06:31:17.905Z,22.40
2022-08-26T06:33:47.227Z,22.94
2022-08-26T06:36:19.406Z,22.81
2022-08-26T06:38:49.519Z,22.91
2022-08-26T06:41:21.027Z,23.13
2022-08-26T06:43:51.207Z,23.16
2022-08-26T06:46:23.232Z,23.07
2022-08-26T06:48:55.612Z,22.93
2022-08-26T06:51:26.936Z,23.59
2022-08-26T06:53:59.555Z,23.31
2022-08-26T06:56:33.064Z,23.16
2022-08-26T06:59:02.253Z,23.40
2022-08-26T07:01:34.628Z,23.36
2022-08-26T07:04:07.914Z,23.72
2022-08-26T07:06:41.576Z,23.53
2022-08-26T07:09:12.607Z,24.48
2022-08-26T07:11:42.905Z,24.29
2022-08-26T07:14:12.173Z,23.71
2022-08-26T07:16:42.650Z,24.04
2022-08-26T07:19:12.120Z,24.39
2022-08-26T07:21:41.643Z,24.51
2022-08-26T07:24:10.995Z,24.06
2022-08-26T07:26:42.915Z,24.12
2022-08-26T07:29:12.729Z,24.35
2022-08-26T07:31:43.273Z,24.67
2022-08-26T07:34:13.776Z,23.52
2022-08-26T07:36:42.943Z,24.15
2022-08-26T07:39:11.933Z,24.66
2022-08-26T07:41:41.145Z,24.55
2022-08-26T07:44:12.188Z,25.11
2022-08-26T07:46:44.020Z,25.12
2022-08-26T07:49:13.630Z,25.39
2022-08-26T07:51:43.717Z,25.34
2022-08-26T07:54:13.648Z,25.52
2022-08-26T07:56:44.287Z,25.18
2022-08-26T07:59:15.136Z,25.32
2022-08-26T08:01:46.123Z,25.14
2022-08-26T08:04:17.186Z,26.17
2022-08-26T08:06:47.713Z,26.12
2022-08-26T08:09:17.187Z,26.55
2022-08-26T08:11:46.675Z,26.94
2022-08-26T08:14:18.167Z,26.54
2022-08-26T08:16:54.636Z,25.83
2022-08-26T08:19:24.414Z,25.51
2022-08-26T08:22:06.881Z,25.76
2022-08-26T08:24:49.879Z,25.75
2022-08-26T08:27:23.998Z,25.10
2022-08-26T08:29:55.103Z,24.97
2022-08-26T08:32:25.938Z,25.32
2022-08-26T08:34:55.023Z,26.13
2022-08-26T08:37:24.498Z,26.02
2022-08-26T08:39:53.717Z,26.48
2022-08-26T08:42:39.085Z,26.62
2022-08-26T08:45:13.789Z,26.26
2022-08-26T08:47:50.574Z,26.85
2022-08-26T08:50:28.025Z,26.63
2022-08-26T08:53:11.329Z,25.93
2022-08-26T08:55:52.566Z,26.14
2022-08-26T08:58:28.203Z,26.57
2022-08-26T09:01:04.809Z,26.90
2022-08-26T09:03:48.583Z,27.08
2022-08-26T09:06:20.741Z,27.89
2022-08-26T09:08:51.691Z,26.24
2022-08-26T09:11:21.733Z,26.18
2022-08-26T09:13:54.274Z,26.01
2022-08-26T09:16:28.736Z,26.47
2022-08-26T09:19:06.848Z,26.24
2022-08-26T09:21:35.887Z,26.53
2022-08-26T09:24:05.626Z,28.01
2022-08-26T09:26:47.435Z,28.56
2022-08-26T09:29:23.477Z,27.48
2022-08-26T09:31:54.756Z,26.47
2022-08-26T09:34:28.468Z,26.93
2022-08-26T09:36:59.558Z,26.11
2022-08-26T09:39:33.139Z,26.59
2022-08-26T09:42:09.567Z,26.73
2022-08-26T09:44:55.723Z,26.45
2022-08-26T09:47:31.796Z,26.29
2022-08-26T09:50:12.578Z,26.29
2022-08-26T09:52:42.840Z,27.53
2022-08-26T09:55:22.231Z,26.98
2022-08-26T09:57:54.030Z,27.27
2022-08-26T10:00:33.242Z,26.34
2022-08-26T10:03:05.060Z,26.72
2022-08-26T10:05:40.520Z,26.65
2022-08-26T10:08:25.347Z,26.24
2022-08-26T10:10:56.187Z,25.91
2022-08-26T10:13:31.325Z,26.27
2022-08-26T10:16:07.477Z,26.59
2022-08-26T10:18:42.984Z,26.17
2022-08-26T10:21:18.697Z,26.67
2022-08-26T10:23:51.271Z,26.60
2022-08-26T10:26:28.658Z,26.87
2022-08-26T10:29:06.266Z,27.41
2022-08-26T10:31:40.674Z,27.66
2022-08-26T10:34:12.488Z,29.45
2022-08-26T10:37:13.662Z,29.50
2022-08-26T10:39:49.450Z,29.36
2022-08-26T10:42:33.400Z,29.35
2022-08-26T10:45:11.899Z,29.04
2022-08-26T10:47:49.673Z,30.16
2022-08-26T10:50:19.762Z,31.03
2022-08-26T10:53:01.283Z,30.15
2022-08-26T10:55:38.387Z,29.55
2022-08-26T10:58:33.221Z,28.56
2022-08-26T11:01:28.342Z,29.26
2022-08-26T11:04:06.730Z,28.45
2022-08-26T11:06:37.126Z,28.04
2022-08-26T11:09:09.821Z,27.72
2022-08-26T11:11:50.628Z,28.40
2022-08-26T11:14:42.070Z,27.41
2022-08-26T11:17:56.294Z,28.75
2022-08-26T11:20:39.332Z,29.50
2022-08-26T11:23:41.632Z,30.36
2022-08-26T11:26:37.605Z,30.87
2022-08-26T11:29:13.041Z,30.71
2022-08-26T11:31:57.335Z,30.26
2022-08-26T11:34:52.863Z,30.38
2022-08-26T11:37:27.190Z,31.00
2022-08-26T11:39:57.567Z,30.59
2022-08-26T11:42:36.253Z,29.44
2022-08-26T11:45:19.322Z,30.73
2022-08-26T11:47:49.392Z,29.71
2022-08-26T11:50:23.291Z,30.44
2022-08-26T11:53:01.628Z,30.42
2022-08-26T11:55:31.110Z,30.44
2022-08-26T11:58:04.980Z,30.72
2022-08-26T12:00:49.723Z,28.31
2022-08-26T12:03:23.200Z,27.86
2022-08-26T12:05:54.459Z,28.02
2022-08-26T12:08:27.984Z,28.10
2022-08-26T12:11:05.237Z,28.18
2022-08-26T12:13:38.897Z,27.43
2022-08-26T12:16:08.413Z,28.64
2022-08-26T12:18:39.647Z,28.44
2022-08-26T12:21:20.214Z,28.42
2022-08-26T12:23:52.924Z,28.29
2022-08-26T12:26:26.271Z,28.93
2022-08-26T12:29:00.942Z,28.41
2022-08-26T12:31:33.088Z,28.87
2022-08-26T12:34:04.738Z,28.57
2022-08-26T12:36:37.332Z,27.60
2022-08-26T12:39:11.619Z,27.25
2022-08-26T12:41:45.232Z,27.43
2022-08-26T12:44:36.637Z,27.69
2022-08-26T12:47:09.955Z,27.64
2022-08-26T12:49:40.821Z,27.41
2022-08-26T12:52:29.800Z,27.59
2022-08-26T12:55:01.197Z,27.80
2022-08-26T12:57:32.916Z,27.55
2022-08-26T13:00:33.178Z,27.53
2022-08-26T13:03:02.762Z,27.92
2022-08-26T13:05:35.482Z,27.94
2022-08-26T13:08:16.583Z,28.00
2022-08-26T13:10:48.606Z,28.06
2022-08-26T13:13:17.732Z,29.05
2022-08-26T13:15:48.166Z,29.83
2022-08-26T13:18:17.612Z,30.57
2022-08-26T13:20:46.820Z,29.48
2022-08-26T13:23:16.357Z,29.55
2022-08-26T13:25:45.536Z,29.68
2022-08-26T13:28:14.780Z,29.81
2022-08-26T13:30:49.662Z,30.47
2022-08-26T13:33:19.298Z,30.74
2022-08-26T13:35:49.371Z,30.09
2022-08-26T13:38:33.567Z,30.31
2022-08-26T13:41:03.501Z,29.73
2022-08-26T13:43:32.970Z,30.12
2022-08-26T13:46:03.709Z,30.10
2022-08-26T13:48:33.896Z,29.21
2022-08-26T13:51:03.274Z,29.15
2022-08-26T13:53:37.405Z,29.04
2022-08-26T13:56:10.866Z,29.66
2022-08-26T13:58:40.280Z,29.35
2022-08-26T14:01:10.757Z,28.83
2022-08-26T14:03:40.019Z,29.08
2022-08-26T14:06:09.849Z,29.37
2022-08-26T14:08:41.536Z,29.60
2022-08-26T14:11:10.911Z,29.43
2022-08-26T14:13:40.385Z,29.70
2022-08-26T14:16:16.289Z,29.17
2022-08-26T14:18:50.481Z,28.86
2022-08-26T14:21:20.598Z,28.04
2022-08-26T14:24:00.810Z,27.70
2022-08-26T14:26:32.365Z,27.13
2022-08-26T14:29:04.280Z,26.69
2022-08-26T14:31:37.877Z,26.83
2022-08-26T14:34:10.767Z,26.75
2022-08-26T14:36:43.735Z,26.93
2022-08-26T14:39:15.233Z,26.68
2022-08-26T14:41:54.077Z,26.43
2022-08-26T14:44:26.901Z,27.46
2022-08-26T14:46:57.883Z,28.29
2022-08-26T14:49:27.798Z,27.87
2022-08-26T14:51:56.867Z,27.24
2022-08-26T14:54:26.264Z,27.29
2022-08-26T14:56:58.567Z,26.45
2022-08-26T14:59:37.348Z,26.60
2022-08-26T15:02:11.496Z,25.52
2022-08-26T15:04:43.468Z,25.22
2022-08-26T15:07:12.802Z,25.46
2022-08-26T15:09:41.976Z,26.18
2022-08-26T15:12:11.055Z,25.13
2022-08-26T15:14:40.550Z,24.80
2022-08-26T15:17:10.894Z,25.44
2022-08-26T15:19:40.046Z,24.89
2022-08-26T15:22:09.119Z,24.79
2022-08-26T15:24:38.228Z,24.80
2022-08-26T15:27:08.457Z,24.91
2022-08-26T15:29:37.635Z,24.76
2022-08-26T15:32:07.071Z,24.80
2022-08-26T15:34:37.711Z,24.55
2022-08-26T15:37:07.188Z,24.78
2022-08-26T15:39:36.518Z,24.75
2022-08-26T15:42:07.141Z,25.08
2022-08-26T15:44:37.333Z,25.21
2022-08-26T15:47:06.968Z,25.61
2022-08-26T15:49:38.833Z,25.96
2022-08-26T15:52:11.014Z,25.50
2022-08-26T15:54:41.069Z,25.56
2022-08-26T15:57:12.387Z,25.53
2022-08-26T15:59:43.907Z,25.59
2022-08-26T16:02:13.644Z,25.55
2022-08-26T16:04:44.266Z,26.01
2022-08-26T16:07:14.544Z,26.17
2022-08-26T16:09:46.130Z,25.95
2022-08-26T16:12:22.830Z,25.97
2022-08-26T16:14:54.143Z,25.64
2022-08-26T16:17:24.305Z,25.34
2022-08-26T16:19:56.611Z,24.94
2022-08-26T16:22:26.954Z,24.78
2022-08-26T16:24:58.975Z,24.80
2022-08-26T16:27:28.183Z,24.50
2022-08-26T16:29:57.282Z,24.71
2022-08-26T16:32:30.739Z,24.67
2022-08-26T16:35:01.934Z,24.70
2022-08-26T16:37:31.035Z,23.95
2022-08-26T16:40:00.633Z,24.13
2022-08-26T16:42:29.821Z,23.92
2022-08-26T16:44:59.066Z,23.76
2022-08-26T16:47:28.329Z,24.09
2022-08-26T16:49:57.499Z,24.18
2022-08-26T16:52:31.299Z,24.19
2022-08-26T16:55:00.884Z,23.80
2022-08-26T16:57:30.045Z,23.82
2022-08-26T16:59:59.263Z,23.81
2022-08-26T17:02:28.469Z,23.82
2022-08-26T17:04:57.617Z,23.80
2022-08-26T17:07:28.169Z,23.91
2022-08-26T17:09:57.823Z,23.95
2022-08-26T17:12:28.342Z,23.81
2022-08-26T17:14:57.611Z,23.61
2022-08-26T17:17:26.975Z,23.62
2022-08-26T17:19:56.158Z,23.32
2022-08-26T17:22:25.367Z,23.05
2022-08-26T17:24:56.371Z,22.82
2022-08-26T17:27:25.846Z,22.65
2022-08-26T17:29:54.956Z,22.74
2022-08-26T17:32:24.027Z,22.53
2022-08-26T17:34:53.088Z,22.51
2022-08-26T17:37:22.121Z,22.31
2022-08-26T17:39:51.315Z,22.44
2022-08-26T17:42:22.033Z,22.35
2022-08-26T17:45:01.823Z,22.37
2022-08-26T17:47:30.868Z,22.37
2022-08-26T17:50:00.784Z,22.33
2022-08-26T17:52:30.326Z,22.18
2022-08-26T17:54:59.689Z,22.12
2022-08-26T17:57:31.026Z,22.01
2022-08-26T18:00:00.273Z,21.96
2022-08-26T18:04:59.902Z,21.75
2022-08-26T18:07:29.853Z,21.70
2022-08-26T18:09:58.881Z,21.56
2022-08-26T18:12:29.376Z,21.57
2022-08-26T18:14:58.460Z,21.37
2022-08-26T18:17:27.827Z,21.23
2022-08-26T18:19:56.942Z,21.06
2022-08-26T18:22:25.931Z,21.01
2022-08-26T18:24:58.953Z,20.97
2022-08-26T18:27:29.859Z,20.94
2022-08-26T18:30:02.006Z,20.84
2022-08-26T18:32:31.115Z,20.83
2022-08-26T18:35:00.359Z,20.78
2022-08-26T18:37:31.578Z,20.71
2022-08-26T18:40:02.158Z,20.68
2022-08-26T18:42:34.620Z,20.69
2022-08-26T18:45:04.082Z,20.64
2022-08-26T18:47:34.017Z,20.53
2022-08-26T18:50:05.480Z,20.57
2022-08-26T18:52:34.875Z,20.48
2022-08-26T18:55:04.382Z,20.42
2022-08-26T18:57:36.369Z,20.40
2022-08-26T19:00:07.794Z,20.37
2022-08-26T19:02:36.949Z,20.29
2022-08-26T19:05:08.590Z,20.25
2022-08-26T19:07:39.715Z,20.43
2022-08-26T19:10:09.723Z,20.34
2022-08-26T19:12:40.469Z,20.33
2022-08-26T19:15:10.494Z,20.11
2022-08-26T19:17:42.362Z,20.41
2022-08-26T19:20:12.633Z,20.37
2022-08-26T19:22:42.011Z,20.46
2022-08-26T19:25:11.732Z,20.50
2022-08-26T19:27:42.412Z,20.42
2022-08-26T19:30:15.133Z,20.38
2022-08-26T19:32:44.486Z,20.45
2022-08-26T19:35:14.551Z,20.29
2022-08-26T19:37:43.842Z,20.14
2022-08-26T19:40:14.146Z,20.12
2022-08-26T19:42:44.633Z,20.05
2022-08-26T19:45:24.946Z,19.99
2022-08-26T19:47:54.670Z,20.02
2022-08-26T19:50:26.028Z,20.01
2022-08-26T19:52:55.288Z,19.88
2022-08-26T19:55:29.586Z,19.95
2022-08-26T19:58:00.103Z,19.95
2022-08-26T20:00:31.958Z,20.06
2022-08-26T20:03:01.519Z,19.85
2022-08-26T20:05:30.647Z,19.81
2022-08-26T20:07:59.831Z,19.73
2022-08-26T20:10:29.003Z,19.73
2022-08-26T20:12:59.596Z,19.74
2022-08-26T20:15:32.031Z,19.64
2022-08-26T20:18:01.314Z,19.70
2022-08-26T20:20:50.618Z,19.69
2022-08-26T20:23:21.099Z,19.61
2022-08-26T20:25:50.367Z,19.56
2022-08-26T20:28:20.848Z,19.68
2022-08-26T20:30:50.843Z,19.75
2022-08-26T20:33:20.528Z,19.84
2022-08-26T20:35:51.855Z,19.77
2022-08-26T20:38:21.731Z,19.84
2022-08-26T20:40:51.056Z,19.89
2022-08-26T20:43:25.886Z,19.87
2022-08-26T20:45:55.268Z,19.97
2022-08-26T20:48:24.549Z,20.05
2022-08-26T20:50:57.184Z,20.03
2022-08-26T20:53:27.277Z,19.87
2022-08-26T20:56:00.504Z,19.92
2022-08-26T20:58:31.693Z,19.87
2022-08-26T21:01:05.286Z,19.86
2022-08-26T21:03:37.666Z,19.94
2022-08-26T21:06:07.523Z,19.87
2022-08-26T21:08:39.732Z,19.86
2022-08-26T21:11:12.281Z,19.85
2022-08-26T21:14:04.057Z,19.75
2022-08-26T21:16:33.094Z,19.76
2022-08-26T21:19:02.201Z,19.81
2022-08-26T21:21:31.358Z,19.72
2022-08-26T21:24:00.720Z,19.74
2022-08-26T21:26:29.916Z,19.75
2022-08-26T21:29:02.595Z,19.73
2022-08-26T21:31:32.652Z,19.84
2022-08-26T21:34:01.843Z,19.66
2022-08-26T21:36:31.114Z,19.71
2022-08-26T21:39:01.760Z,19.78
2022-08-26T21:41:31.181Z,19.74
2022-08-26T21:44:01.676Z,19.73
2022-08-26T21:46:32.046Z,19.64
2022-08-26T21:49:02.879Z,19.71
2022-08-26T21:51:34.630Z,19.60
2022-08-26T21:54:09.953Z,19.58
2022-08-26T21:56:44.163Z,19.40
2022-08-26T21:59:16.249Z,19.32
2022-08-26T22:01:45.460Z,19.47
2022-08-26T22:04:14.823Z,19.51
2022-08-26T22:06:45.883Z,19.45
2022-08-26T22:09:17.857Z,19.36
2022-08-26T22:11:47.412Z,19.50
2022-08-26T22:14:20.493Z,19.42
2022-08-26T22:16:50.575Z,19.40
2022-08-26T22:19:20.983Z,19.32
2022-08-26T22:21:55.128Z,19.37
2022-08-26T22:24:27.094Z,19.37
2022-08-26T22:26:57.139Z,19.44
2022-08-26T22:29:27.924Z,19.49
2022-08-26T22:31:57.199Z,19.43
2022-08-26T22:34:26.329Z,19.45
2022-08-26T22:36:55.535Z,19.37
2022-08-26T22:39:26.488Z,19.39
2022-08-26T22:41:57.239Z,19.40
2022-08-26T22:44:27.619Z,19.38
2022-08-26T22:46:56.950Z,19.39
2022-08-26T22:49:26.436Z,19.45
2022-08-26T22:51:55.904Z,19.47
2022-08-26T22:54:25.267Z,19.42
2022-08-26T22:56:55.957Z,19.43
2022-08-26T22:59:26.606Z,19.35
2022-08-26T23:01:55.675Z,19.34
2022-08-26T23:04:24.821Z,19.39
2022-08-26T23:06:53.911Z,19.28
2022-08-26T23:09:23.024Z,19.35
2022-08-26T23:11:52.197Z,19.37
2022-08-26T23:14:21.377Z,19.33
2022-08-26T23:16:52.766Z,19.23
2022-08-26T23:19:23.492Z,19.34
2022-08-26T23:21:52.876Z,19.34
2022-08-26T23:24:23.015Z,19.23
2022-08-26T23:26:52.121Z,19.23
2022-08-26T23:29:21.300Z,19.19
2022-08-26T23:31:51.887Z,19.17
2022-08-26T23:34:38.766Z,19.16
2022-08-26T23:37:08.742Z,19.17
2022-08-26T23:39:38.187Z,19.06
2022-08-26T23:42:08.190Z,19.14
2022-08-26T23:44:37.702Z,19.09
2022-08-26T23:47:09.020Z,19.15
2022-08-26T23:49:38.456Z,19.08
2022-08-26T23:52:25.843Z,19.06
2022-08-26T23:54:55.007Z,19.10
2022-08-26T23:57:26.482Z,19.10
2022-08-26T23:59:55.803Z,18.96
